createdAt,value
2023-05-14T10:47:47.476Z,3.30
2023-05-14T10:50:15.061Z,3.53
2023-05-14T10:52:43.470Z,3.15
2023-05-14T10:55:12.941Z,3.47
2023-05-14T10:57:40.256Z,3.03
2023-05-14T11:00:08.940Z,3.08
2023-05-14T11:02:37.137Z,3.15
2023-05-14T11:05:09.292Z,3.00
2023-05-14T11:07:38.022Z,3.22
2023-05-14T11:10:11.996Z,3.03
2023-05-14T11:12:43.077Z,3.15
2023-05-14T11:15:11.242Z,3.17
2023-05-14T11:17:39.066Z,3.43
2023-05-14T11:20:06.708Z,3.25
2023-05-14T11:22:36.585Z,3.50
2023-05-14T11:25:03.751Z,3.70
2023-05-14T11:27:31.121Z,3.33
2023-05-14T11:29:58.175Z,2.97
2023-05-14T11:32:25.015Z,2.65
2023-05-14T11:34:51.918Z,2.60
2023-05-14T11:37:18.713Z,2.55
2023-05-14T11:39:53.511Z,2.92
2023-05-14T11:42:21.067Z,3.28
2023-05-14T11:44:51.802Z,2.55
2023-05-14T11:47:19.819Z,2.38
2023-05-14T11:49:46.774Z,2.95
2023-05-14T11:52:14.810Z,2.55
2023-05-14T11:54:44.744Z,2.90
2023-05-14T11:57:13.453Z,3.60
2023-05-14T11:59:40.334Z,3.60
2023-05-14T12:02:17.778Z,2.33
2023-05-14T12:04:45.053Z,2.30
2023-05-14T12:07:13.619Z,2.80
2023-05-14T12:09:45.071Z,2.05
2023-05-14T12:12:12.413Z,3.10
2023-05-14T12:14:41.595Z,2.40
2023-05-14T12:17:15.546Z,2.33
2023-05-14T12:19:42.925Z,2.50
2023-05-14T12:22:10.734Z,2.65
2023-05-14T12:24:39.199Z,2.88
2023-05-14T12:27:06.887Z,2.75
2023-05-14T12:29:38.140Z,2.67
2023-05-14T12:32:09.326Z,3.05
2023-05-14T12:34:37.659Z,3.13
2023-05-14T12:37:05.741Z,5.85
2023-05-14T12:39:35.867Z,3.10
2023-05-14T12:42:02.719Z,2.95
2023-05-14T12:44:29.584Z,3.10
2023-05-14T12:46:56.526Z,2.70
2023-05-14T12:49:23.385Z,3.88
2023-05-14T12:51:54.502Z,3.40
2023-05-14T12:54:26.810Z,3.28
2023-05-14T12:56:53.630Z,3.17
2023-05-14T12:59:21.073Z,3.33
2023-05-14T13:01:47.833Z,3.22
2023-05-14T13:04:14.742Z,3.08
2023-05-14T13:06:41.707Z,3.65
2023-05-14T13:09:08.822Z,3.13
2023-05-14T13:11:35.860Z,3.85
2023-05-14T13:14:02.876Z,4.70
2023-05-14T13:16:29.822Z,3.78
2023-05-14T13:18:56.705Z,3.35
2023-05-14T13:21:23.499Z,3.70
2023-05-14T13:23:50.772Z,3.63
2023-05-14T13:26:17.546Z,4.32
2023-05-14T13:28:44.367Z,3.55
2023-05-14T13:31:12.358Z,3.75
2023-05-14T13:33:41.438Z,2.83
2023-05-14T13:38:35.877Z,3.45
2023-05-14T13:41:02.878Z,3.30
2023-05-14T13:43:33.511Z,3.70
2023-05-14T13:46:01.176Z,4.07
2023-05-14T13:48:28.203Z,4.05
2023-05-14T13:50:55.110Z,4.28
2023-05-14T13:53:23.003Z,4.45
2023-05-14T13:55:50.243Z,7.03
2023-05-14T13:58:17.040Z,6.40
2023-05-14T14:00:43.915Z,5.43
2023-05-14T14:03:10.774Z,6.03
2023-05-14T14:05:37.753Z,6.25
2023-05-14T14:08:21.991Z,7.65
2023-05-14T14:10:50.750Z,6.90
2023-05-14T14:13:17.511Z,6.05
2023-05-14T14:15:44.473Z,6.57
2023-05-14T14:18:11.373Z,6.13
2023-05-14T14:20:38.293Z,8.27
2023-05-14T14:23:05.145Z,7.20
2023-05-14T14:25:31.886Z,5.97
2023-05-14T14:27:58.723Z,5.43
2023-05-14T14:30:25.752Z,5.18
2023-05-14T14:32:52.677Z,6.40
2023-05-14T14:35:19.838Z,5.78
2023-05-14T14:37:50.661Z,5.00
2023-05-14T14:40:17.737Z,5.75
2023-05-14T14:42:44.673Z,4.85
2023-05-14T14:45:11.958Z,5.88
2023-05-14T14:47:38.858Z,5.43
2023-05-14T14:50:06.662Z,5.88
2023-05-14T14:52:34.031Z,5.53
2023-05-14T14:55:00.869Z,5.90
2023-05-14T14:57:27.598Z,7.88
2023-05-14T14:59:54.391Z,18.48
2023-05-14T15:02:21.175Z,13.02
2023-05-14T15:04:47.916Z,6.13
2023-05-14T15:07:17.341Z,6.28
2023-05-14T15:09:44.255Z,7.75
2023-05-14T15:12:11.011Z,8.38
2023-05-14T15:14:37.813Z,9.85
2023-05-14T15:17:04.927Z,9.57
2023-05-14T15:19:32.391Z,9.32
2023-05-14T15:21:59.216Z,8.80
2023-05-14T15:24:26.296Z,8.93
2023-05-14T15:26:53.740Z,10.07
2023-05-14T15:29:20.705Z,10.55
2023-05-14T15:31:47.586Z,9.07
2023-05-14T15:34:14.426Z,9.45
2023-05-14T15:36:41.210Z,7.88
2023-05-14T15:39:10.322Z,12.10
2023-05-14T15:44:04.207Z,8.48
2023-05-14T15:46:31.169Z,7.60
2023-05-14T15:48:58.236Z,7.22
2023-05-14T15:51:25.061Z,7.28
2023-05-14T15:53:54.143Z,6.68
2023-05-14T15:58:48.875Z,7.45
2023-05-14T16:01:15.952Z,8.35
2023-05-14T16:03:42.985Z,8.00
2023-05-14T16:06:10.129Z,8.45
2023-05-14T16:08:37.185Z,9.13
2023-05-14T16:11:04.033Z,8.77
2023-05-14T16:13:30.888Z,12.20
2023-05-14T16:15:59.532Z,8.48
2023-05-14T16:18:26.539Z,7.90
2023-05-14T16:20:53.645Z,9.27
2023-05-14T16:23:20.580Z,9.02
2023-05-14T16:25:47.444Z,7.10
2023-05-14T16:28:14.249Z,7.43
2023-05-14T16:30:41.066Z,7.63
2023-05-14T16:33:07.896Z,8.13
2023-05-14T16:35:34.780Z,7.75
2023-05-14T16:38:01.920Z,7.28
2023-05-14T16:40:28.726Z,7.90
2023-05-14T16:42:55.491Z,9.75
2023-05-14T16:45:22.441Z,8.90
2023-05-14T16:47:49.506Z,13.00
2023-05-14T16:50:16.533Z,10.82
2023-05-14T16:52:43.299Z,14.30
2023-05-14T16:55:10.581Z,14.45
2023-05-14T16:57:37.533Z,12.85
2023-05-14T17:00:06.262Z,9.52
2023-05-14T17:02:33.697Z,10.93
2023-05-14T17:05:00.654Z,14.15
2023-05-14T17:07:27.517Z,12.40
2023-05-14T17:09:54.334Z,8.23
2023-05-14T17:12:21.440Z,8.82
2023-05-14T17:14:48.206Z,8.95
2023-05-14T17:17:15.046Z,8.93
2023-05-14T17:19:42.478Z,10.52
2023-05-14T17:22:09.234Z,10.30
2023-05-14T17:24:36.580Z,9.70
2023-05-14T17:27:03.530Z,10.75
2023-05-14T17:29:30.694Z,15.07
2023-05-14T17:31:57.847Z,12.52
2023-05-14T17:34:24.880Z,12.95
2023-05-14T17:36:51.645Z,11.90
2023-05-14T17:39:18.511Z,12.05
2023-05-14T17:41:45.342Z,11.57
2023-05-14T17:44:13.168Z,11.60
2023-05-14T17:46:41.585Z,11.45
2023-05-14T17:49:08.498Z,11.95
2023-05-14T17:51:35.310Z,12.50
2023-05-14T17:54:02.126Z,11.65
2023-05-14T17:56:28.890Z,12.25
2023-05-14T17:58:55.680Z,12.63
2023-05-14T18:01:22.496Z,11.63
2023-05-14T18:03:49.481Z,11.13
2023-05-14T18:06:16.899Z,12.95
2023-05-14T18:08:43.723Z,16.50
2023-05-14T18:11:10.490Z,12.55
2023-05-14T18:13:37.238Z,13.15
2023-05-14T18:16:04.227Z,14.05
2023-05-14T18:18:31.279Z,13.80
2023-05-14T18:20:58.142Z,20.13
2023-05-14T18:23:24.912Z,20.77
2023-05-14T18:25:51.742Z,18.92
2023-05-14T18:28:19.027Z,17.90
2023-05-14T18:30:45.915Z,18.20
2023-05-14T18:33:13.058Z,18.70
2023-05-14T18:35:40.399Z,16.70
2023-05-14T18:38:08.100Z,13.85
2023-05-14T18:40:34.986Z,23.13
2023-05-14T18:43:01.832Z,18.45
2023-05-14T18:45:28.698Z,20.95
2023-05-14T18:47:55.833Z,15.57
2023-05-14T18:50:22.626Z,13.85
2023-05-14T18:52:49.387Z,16.60
2023-05-14T18:55:16.198Z,18.35
2023-05-14T18:57:42.953Z,18.63
2023-05-14T19:00:10.374Z,18.17
2023-05-14T19:02:37.242Z,15.60
2023-05-14T19:05:04.304Z,16.17
2023-05-14T19:07:31.302Z,17.90
2023-05-14T19:09:58.090Z,57.72
2023-05-14T19:12:24.866Z,19.02
2023-05-14T19:14:51.616Z,16.38
2023-05-14T19:17:19.928Z,17.45
2023-05-14T19:19:47.409Z,17.17
2023-05-14T19:22:14.217Z,17.50
2023-05-14T19:24:41.017Z,22.38
2023-05-14T19:27:08.196Z,24.02
2023-05-14T19:29:36.773Z,23.65
2023-05-14T19:32:04.772Z,28.75
2023-05-14T19:34:31.624Z,20.02
2023-05-14T19:36:58.368Z,19.75
2023-05-14T19:39:25.180Z,21.15
2023-05-14T19:41:51.934Z,29.42
2023-05-14T19:44:18.799Z,34.78
2023-05-14T19:46:45.770Z,23.98
2023-05-14T19:49:12.589Z,29.42
2023-05-14T19:51:39.479Z,22.00
2023-05-14T19:54:06.821Z,21.38
2023-05-14T19:56:33.613Z,20.25
2023-05-14T19:59:00.434Z,29.13
2023-05-14T20:01:27.503Z,28.20
2023-05-14T20:03:54.282Z,17.00
2023-05-14T20:06:21.021Z,13.43
2023-05-14T20:08:47.901Z,14.73
2023-05-14T20:11:15.722Z,14.68
2023-05-14T20:13:42.569Z,17.17
2023-05-14T20:16:09.327Z,15.95
2023-05-14T20:18:36.340Z,14.25
2023-05-14T20:21:03.942Z,16.10
2023-05-14T20:23:30.710Z,16.33
2023-05-14T20:25:57.443Z,17.63
2023-05-14T20:28:24.299Z,17.95
2023-05-14T20:30:51.081Z,17.83
2023-05-14T20:33:17.869Z,14.18
2023-05-14T20:35:44.756Z,13.85
2023-05-14T20:38:12.776Z,13.90
2023-05-14T20:40:39.931Z,13.68
2023-05-14T20:43:06.800Z,19.63
2023-05-14T20:45:33.628Z,14.82
2023-05-14T20:48:00.609Z,14.57
2023-05-14T20:50:28.015Z,14.50
2023-05-14T20:52:55.369Z,14.15
2023-05-14T20:55:22.412Z,13.55
2023-05-14T20:57:49.723Z,13.85
2023-05-14T21:00:16.926Z,13.70
2023-05-14T21:02:43.836Z,12.95
2023-05-14T21:05:10.797Z,13.57
2023-05-14T21:07:37.653Z,16.10
2023-05-14T21:10:04.729Z,15.20
2023-05-14T21:12:31.572Z,11.55
2023-05-14T21:14:58.316Z,11.85
2023-05-14T21:17:25.152Z,14.18
2023-05-14T21:19:52.004Z,13.38
2023-05-14T21:22:18.796Z,10.02
2023-05-14T21:24:45.603Z,9.73
2023-05-14T21:27:12.355Z,10.57
2023-05-14T21:29:39.681Z,12.02
2023-05-14T21:32:07.076Z,13.07
2023-05-14T21:34:33.971Z,9.20
2023-05-14T21:37:01.132Z,10.27
2023-05-14T21:39:27.928Z,6.93
2023-05-14T21:41:54.699Z,8.38
2023-05-14T21:44:22.070Z,7.72
2023-05-14T21:46:48.966Z,8.20
2023-05-14T21:49:15.741Z,7.75
2023-05-14T21:51:43.106Z,7.68
2023-05-14T21:54:09.906Z,7.30
2023-05-14T21:56:37.172Z,6.78
2023-05-14T21:59:04.792Z,6.10
2023-05-14T22:01:32.616Z,5.47
2023-05-14T22:06:27.490Z,6.90
2023-05-14T22:08:54.256Z,6.78
2023-05-14T22:11:21.941Z,6.82
2023-05-14T22:13:48.834Z,6.10
2023-05-14T22:16:15.794Z,6.55
2023-05-14T22:18:42.788Z,5.22
2023-05-14T22:21:09.640Z,5.60
2023-05-14T22:23:36.729Z,5.50
2023-05-14T22:26:03.860Z,4.75
2023-05-14T22:28:30.637Z,5.50
2023-05-14T22:30:59.817Z,5.93
2023-05-14T22:33:26.737Z,5.93
2023-05-14T22:35:53.497Z,5.72
2023-05-14T22:38:20.410Z,6.63
2023-05-14T22:40:47.267Z,6.25
2023-05-14T22:43:14.061Z,6.55
2023-05-14T22:45:40.908Z,6.40
2023-05-14T22:48:07.771Z,5.95
2023-05-14T22:50:34.687Z,6.93
2023-05-14T22:53:01.486Z,6.45
2023-05-14T22:55:28.406Z,6.30
2023-05-14T22:57:55.282Z,6.93
2023-05-14T23:00:22.056Z,7.07
2023-05-14T23:02:48.814Z,6.85
2023-05-14T23:05:15.692Z,7.25
2023-05-14T23:07:42.445Z,7.47
2023-05-14T23:10:09.761Z,6.53
2023-05-14T23:12:36.628Z,8.07
2023-05-14T23:15:03.892Z,6.57
2023-05-14T23:17:30.977Z,7.15
2023-05-14T23:19:57.909Z,6.38
2023-05-14T23:22:24.724Z,6.65
2023-05-14T23:24:51.461Z,6.28
2023-05-14T23:27:18.244Z,6.28
2023-05-14T23:29:45.210Z,6.25
2023-05-14T23:32:12.112Z,6.63
2023-05-14T23:34:38.949Z,7.82
2023-05-14T23:37:05.744Z,8.63
2023-05-14T23:39:32.920Z,7.65
2023-05-14T23:41:59.708Z,7.57
2023-05-14T23:44:26.643Z,7.60
2023-05-14T23:46:53.565Z,7.82
2023-05-14T23:49:20.377Z,8.02
2023-05-14T23:51:47.163Z,6.78
2023-05-14T23:54:13.921Z,7.40
2023-05-14T23:56:40.937Z,7.10
2023-05-14T23:59:07.665Z,7.40
